HEAX/ALY METAR and TAF weather

Enter ICAO airport designator
Station Type Date Time Source
HEAX METAR 2021/09/16 10:00 UTC NOAA

HEAX 161000Z 30012KT 9999 SCT020 SCT022 30/19 Q1014 NOSIG


Station Type Date Time Source
HEAX Decoded METAR 2021/09/16 10:00 UTC NOAA

Alexandria / Nouzha, Egypt (HEAX) 31-12N 029-57E 7M
Sep 16, 2021 - 06:00 AM EDT / 2021.09.16 1000 UTC
Wind: from the WNW (300 degrees) at 14 MPH (12 KT):0
Visibility: greater than 7 mile(s):0
Sky conditions: partly cloudy
Temperature: 86 F (30 C)
Dew Point: 66 F (19 C)
Relative Humidity: 51%
Pressure (altimeter): 29.94 in. Hg (1014 hPa)
ob: HEAX 161000Z 30012KT 9999 SCT020 SCT022 30/19 Q1014 NOSIG
cycle: 10

Station Type Date Time Source
HEAX TAF 2021/09/16 12:46 UTC NOAA

TAF HEAX 161100Z 1612/1718 31008G18KT 9999 SCT020

Example: see airport list